sensor_id;sensor_type;location;lat;lon;timestamp;P1;durP1;ratioP1;P2;durP2;ratioP2
47153;SDS011;32907;41.412;2.164;2023-07-16T00:00:25;4.32;;;1.92;;
47153;SDS011;32907;41.412;2.164;2023-07-16T00:02:54;5.72;;;2.17;;
47153;SDS011;32907;41.412;2.164;2023-07-16T00:05:23;4.78;;;1.85;;
47153;SDS011;32907;41.412;2.164;2023-07-16T00:07:51;6.15;;;1.80;;
47153;SDS011;32907;41.412;2.164;2023-07-16T00:10:19;3.92;;;1.60;;
47153;SDS011;32907;41.412;2.164;2023-07-16T00:12:47;5.20;;;1.95;;
47153;SDS011;32907;41.412;2.164;2023-07-16T00:15:15;8.57;;;2.30;;
47153;SDS011;32907;41.412;2.164;2023-07-16T00:17:43;3.08;;;1.70;;
47153;SDS011;32907;41.412;2.164;2023-07-16T00:20:11;4.70;;;2.10;;
47153;SDS011;32907;41.412;2.164;2023-07-16T00:22:40;5.13;;;1.95;;
47153;SDS011;32907;41.412;2.164;2023-07-16T00:25:08;6.97;;;2.05;;
47153;SDS011;32907;41.412;2.164;2023-07-16T00:27:36;5.35;;;1.52;;
47153;SDS011;32907;41.412;2.164;2023-07-16T00:30:03;7.50;;;2.15;;
47153;SDS011;32907;41.412;2.164;2023-07-16T00:32:32;5.55;;;1.70;;
47153;SDS011;32907;41.412;2.164;2023-07-16T00:35:03;4.18;;;1.60;;
47153;SDS011;32907;41.412;2.164;2023-07-16T00:37:31;3.33;;;1.85;;
47153;SDS011;32907;41.412;2.164;2023-07-16T00:40:00;4.88;;;1.70;;
47153;SDS011;32907;41.412;2.164;2023-07-16T00:42:29;3.92;;;1.63;;
47153;SDS011;32907;41.412;2.164;2023-07-16T00:44:57;4.78;;;1.70;;
47153;SDS011;32907;41.412;2.164;2023-07-16T00:47:25;3.78;;;1.33;;
47153;SDS011;32907;41.412;2.164;2023-07-16T00:49:53;4.38;;;1.13;;
47153;SDS011;32907;41.412;2.164;2023-07-16T00:52:21;2.67;;;0.90;;
47153;SDS011;32907;41.412;2.164;2023-07-16T00:54:50;1.92;;;0.90;;
47153;SDS011;32907;41.412;2.164;2023-07-16T00:57:18;6.15;;;1.25;;
47153;SDS011;32907;41.412;2.164;2023-07-16T00:59:46;3.13;;;1.02;;
47153;SDS011;32907;41.412;2.164;2023-07-16T01:02:13;5.82;;;1.13;;
47153;SDS011;32907;41.412;2.164;2023-07-16T01:04:41;4.30;;;1.20;;
47153;SDS011;32907;41.412;2.164;2023-07-16T01:07:11;5.13;;;1.15;;
47153;SDS011;32907;41.412;2.164;2023-07-16T01:09:41;3.97;;;0.95;;
47153;SDS011;32907;41.412;2.164;2023-07-16T01:12:10;3.08;;;0.80;;
47153;SDS011;32907;41.412;2.164;2023-07-16T01:14:39;4.72;;;1.02;;
47153;SDS011;32907;41.412;2.164;2023-07-16T01:17:08;5.30;;;1.42;;
47153;SDS011;32907;41.412;2.164;2023-07-16T01:19:36;3.20;;;0.93;;
47153;SDS011;32907;41.412;2.164;2023-07-16T01:22:10;3.97;;;1.17;;
47153;SDS011;32907;41.412;2.164;2023-07-16T01:25:05;3.78;;;0.80;;
47153;SDS011;32907;41.412;2.164;2023-07-16T01:30:50;5.95;;;1.83;;
47153;SDS011;32907;41.412;2.164;2023-07-16T01:33:20;4.10;;;1.10;;
47153;SDS011;32907;41.412;2.164;2023-07-16T01:35:49;3.50;;;0.80;;
47153;SDS011;32907;41.412;2.164;2023-07-16T01:38:19;3.95;;;1.13;;
47153;SDS011;32907;41.412;2.164;2023-07-16T01:40:49;6.20;;;0.95;;
47153;SDS011;32907;41.412;2.164;2023-07-16T01:43:16;5.40;;;0.90;;
47153;SDS011;32907;41.412;2.164;2023-07-16T01:45:45;3.33;;;0.90;;
47153;SDS011;32907;41.412;2.164;2023-07-16T01:48:33;4.93;;;1.27;;
47153;SDS011;32907;41.412;2.164;2023-07-16T01:51:03;3.85;;;1.00;;
47153;SDS011;32907;41.412;2.164;2023-07-16T01:53:31;3.90;;;1.00;;
47153;SDS011;32907;41.412;2.164;2023-07-16T01:56:00;5.30;;;0.73;;
47153;SDS011;32907;41.412;2.164;2023-07-16T01:58:29;4.43;;;1.02;;
47153;SDS011;32907;41.412;2.164;2023-07-16T02:00:57;6.40;;;1.05;;
47153;SDS011;32907;41.412;2.164;2023-07-16T02:03:25;6.65;;;1.20;;
47153;SDS011;32907;41.412;2.164;2023-07-16T02:05:53;5.53;;;0.75;;
47153;SDS011;32907;41.412;2.164;2023-07-16T02:08:21;3.15;;;0.93;;
47153;SDS011;32907;41.412;2.164;2023-07-16T02:10:49;7.05;;;1.40;;
47153;SDS011;32907;41.412;2.164;2023-07-16T02:13:17;5.03;;;1.52;;
47153;SDS011;32907;41.412;2.164;2023-07-16T02:15:46;4.55;;;0.93;;
47153;SDS011;32907;41.412;2.164;2023-07-16T02:18:14;3.80;;;0.70;;
47153;SDS011;32907;41.412;2.164;2023-07-16T02:20:43;4.80;;;1.05;;
47153;SDS011;32907;41.412;2.164;2023-07-16T02:23:11;4.50;;;1.10;;
47153;SDS011;32907;41.412;2.164;2023-07-16T02:25:39;6.00;;;0.98;;
47153;SDS011;32907;41.412;2.164;2023-07-16T02:28:07;3.17;;;0.90;;
47153;SDS011;32907;41.412;2.164;2023-07-16T02:30:35;6.40;;;0.98;;
47153;SDS011;32907;41.412;2.164;2023-07-16T02:33:03;4.65;;;1.25;;
47153;SDS011;32907;41.412;2.164;2023-07-16T02:35:31;4.47;;;1.50;;
47153;SDS011;32907;41.412;2.164;2023-07-16T02:37:59;3.75;;;0.90;;
47153;SDS011;32907;41.412;2.164;2023-07-16T02:40:27;3.72;;;1.15;;
47153;SDS011;32907;41.412;2.164;2023-07-16T02:42:55;3.13;;;1.02;;
47153;SDS011;32907;41.412;2.164;2023-07-16T02:45:23;5.15;;;1.52;;
47153;SDS011;32907;41.412;2.164;2023-07-16T02:47:51;7.40;;;1.55;;
47153;SDS011;32907;41.412;2.164;2023-07-16T02:50:19;4.00;;;1.25;;
47153;SDS011;32907;41.412;2.164;2023-07-16T02:52:48;6.22;;;1.40;;
47153;SDS011;32907;41.412;2.164;2023-07-16T02:55:16;4.32;;;1.20;;
47153;SDS011;32907;41.412;2.164;2023-07-16T02:57:44;5.63;;;1.55;;
47153;SDS011;32907;41.412;2.164;2023-07-16T03:00:12;6.68;;;1.30;;
47153;SDS011;32907;41.412;2.164;2023-07-16T03:02:40;3.97;;;1.13;;
47153;SDS011;32907;41.412;2.164;2023-07-16T03:05:08;4.90;;;1.40;;
47153;SDS011;32907;41.412;2.164;2023-07-16T03:07:36;6.20;;;1.10;;
47153;SDS011;32907;41.412;2.164;2023-07-16T03:10:04;4.07;;;1.15;;
47153;SDS011;32907;41.412;2.164;2023-07-16T03:12:32;4.50;;;1.27;;
47153;SDS011;32907;41.412;2.164;2023-07-16T03:15:00;5.95;;;0.90;;
47153;SDS011;32907;41.412;2.164;2023-07-16T03:17:30;5.78;;;1.15;;
47153;SDS011;32907;41.412;2.164;2023-07-16T03:19:58;5.03;;;1.15;;
47153;SDS011;32907;41.412;2.164;2023-07-16T03:22:26;5.28;;;1.15;;
47153;SDS011;32907;41.412;2.164;2023-07-16T03:24:54;5.47;;;1.10;;
47153;SDS011;32907;41.412;2.164;2023-07-16T03:27:22;6.05;;;1.13;;
47153;SDS011;32907;41.412;2.164;2023-07-16T03:29:56;3.67;;;1.10;;
47153;SDS011;32907;41.412;2.164;2023-07-16T03:32:25;4.95;;;1.27;;
47153;SDS011;32907;41.412;2.164;2023-07-16T03:35:04;4.28;;;1.20;;
47153;SDS011;32907;41.412;2.164;2023-07-16T03:37:32;2.95;;;0.80;;
47153;SDS011;32907;41.412;2.164;2023-07-16T03:40:17;6.15;;;1.30;;
47153;SDS011;32907;41.412;2.164;2023-07-16T03:42:47;4.78;;;1.45;;
47153;SDS011;32907;41.412;2.164;2023-07-16T03:45:15;4.60;;;1.20;;
47153;SDS011;32907;41.412;2.164;2023-07-16T03:47:43;5.13;;;1.20;;
47153;SDS011;32907;41.412;2.164;2023-07-16T03:50:11;3.58;;;1.10;;
47153;SDS011;32907;41.412;2.164;2023-07-16T03:52:39;2.97;;;0.95;;
47153;SDS011;32907;41.412;2.164;2023-07-16T03:55:07;4.35;;;1.23;;
47153;SDS011;32907;41.412;2.164;2023-07-16T03:57:35;2.92;;;0.82;;
47153;SDS011;32907;41.412;2.164;2023-07-16T04:00:04;4.05;;;1.08;;
47153;SDS011;32907;41.412;2.164;2023-07-16T04:02:47;3.28;;;1.10;;
47153;SDS011;32907;41.412;2.164;2023-07-16T04:05:17;4.10;;;1.20;;
47153;SDS011;32907;41.412;2.164;2023-07-16T04:07:50;3.88;;;1.35;;
47153;SDS011;32907;41.412;2.164;2023-07-16T04:10:19;3.70;;;1.00;;
47153;SDS011;32907;41.412;2.164;2023-07-16T04:12:47;2.97;;;0.95;;
47153;SDS011;32907;41.412;2.164;2023-07-16T04:15:15;4.20;;;1.38;;
47153;SDS011;32907;41.412;2.164;2023-07-16T04:17:43;3.83;;;1.33;;
47153;SDS011;32907;41.412;2.164;2023-07-16T04:20:11;3.63;;;1.17;;
47153;SDS011;32907;41.412;2.164;2023-07-16T04:22:39;3.33;;;1.25;;
47153;SDS011;32907;41.412;2.164;2023-07-16T04:25:07;2.67;;;1.00;;
47153;SDS011;32907;41.412;2.164;2023-07-16T04:27:35;2.33;;;0.80;;
47153;SDS011;32907;41.412;2.164;2023-07-16T04:30:03;3.15;;;1.02;;
47153;SDS011;32907;41.412;2.164;2023-07-16T04:32:32;4.85;;;1.33;;
47153;SDS011;32907;41.412;2.164;2023-07-16T04:35:01;3.45;;;0.95;;
47153;SDS011;32907;41.412;2.164;2023-07-16T04:37:29;2.78;;;1.02;;
47153;SDS011;32907;41.412;2.164;2023-07-16T04:39:57;2.17;;;0.77;;
47153;SDS011;32907;41.412;2.164;2023-07-16T04:42:24;3.40;;;0.90;;
47153;SDS011;32907;41.412;2.164;2023-07-16T04:44:52;2.35;;;0.90;;
47153;SDS011;32907;41.412;2.164;2023-07-16T04:47:20;2.20;;;0.90;;
47153;SDS011;32907;41.412;2.164;2023-07-16T04:49:48;3.35;;;1.13;;
47153;SDS011;32907;41.412;2.164;2023-07-16T04:52:16;2.65;;;1.05;;
47153;SDS011;32907;41.412;2.164;2023-07-16T04:54:44;2.50;;;1.05;;
47153;SDS011;32907;41.412;2.164;2023-07-16T04:57:11;3.13;;;0.80;;
47153;SDS011;32907;41.412;2.164;2023-07-16T04:59:40;1.88;;;0.80;;
47153;SDS011;32907;41.412;2.164;2023-07-16T05:02:07;1.60;;;0.70;;
47153;SDS011;32907;41.412;2.164;2023-07-16T05:04:36;2.05;;;0.82;;
47153;SDS011;32907;41.412;2.164;2023-07-16T05:07:04;1.63;;;0.65;;
47153;SDS011;32907;41.412;2.164;2023-07-16T05:09:33;2.03;;;0.70;;
47153;SDS011;32907;41.412;2.164;2023-07-16T05:12:02;1.60;;;0.90;;
47153;SDS011;32907;41.412;2.164;2023-07-16T05:14:30;1.35;;;0.60;;
47153;SDS011;32907;41.412;2.164;2023-07-16T05:16:58;3.25;;;0.73;;
47153;SDS011;32907;41.412;2.164;2023-07-16T05:19:26;1.58;;;0.70;;
47153;SDS011;32907;41.412;2.164;2023-07-16T05:21:53;1.63;;;0.55;;
47153;SDS011;32907;41.412;2.164;2023-07-16T05:24:21;2.38;;;0.30;;
47153;SDS011;32907;41.412;2.164;2023-07-16T05:26:50;4.10;;;0.55;;
47153;SDS011;32907;41.412;2.164;2023-07-16T05:29:18;3.17;;;0.60;;
47153;SDS011;32907;41.412;2.164;2023-07-16T05:31:46;2.15;;;0.60;;
47153;SDS011;32907;41.412;2.164;2023-07-16T05:34:14;3.92;;;0.90;;
47153;SDS011;32907;41.412;2.164;2023-07-16T05:36:42;2.45;;;0.90;;
47153;SDS011;32907;41.412;2.164;2023-07-16T05:39:13;3.08;;;0.90;;
47153;SDS011;32907;41.412;2.164;2023-07-16T05:41:42;1.30;;;0.70;;
47153;SDS011;32907;41.412;2.164;2023-07-16T05:44:10;3.15;;;0.80;;
47153;SDS011;32907;41.412;2.164;2023-07-16T05:46:38;2.80;;;0.90;;
47153;SDS011;32907;41.412;2.164;2023-07-16T05:49:06;3.67;;;1.10;;
47153;SDS011;32907;41.412;2.164;2023-07-16T05:51:34;2.47;;;1.00;;
47153;SDS011;32907;41.412;2.164;2023-07-16T05:54:02;2.70;;;0.80;;
47153;SDS011;32907;41.412;2.164;2023-07-16T05:56:30;2.72;;;0.70;;
47153;SDS011;32907;41.412;2.164;2023-07-16T05:58:58;2.42;;;0.88;;
47153;SDS011;32907;41.412;2.164;2023-07-16T06:01:25;7.82;;;1.30;;
47153;SDS011;32907;41.412;2.164;2023-07-16T06:03:53;4.60;;;1.17;;
47153;SDS011;32907;41.412;2.164;2023-07-16T06:06:21;3.30;;;0.80;;
47153;SDS011;32907;41.412;2.164;2023-07-16T06:08:49;2.75;;;0.85;;
47153;SDS011;32907;41.412;2.164;2023-07-16T06:11:17;1.65;;;0.70;;
47153;SDS011;32907;41.412;2.164;2023-07-16T06:13:45;2.10;;;0.95;;
47153;SDS011;32907;41.412;2.164;2023-07-16T06:18:10;2.58;;;0.60;;
47153;SDS011;32907;41.412;2.164;2023-07-16T06:20:44;1.35;;;0.60;;
47153;SDS011;32907;41.412;2.164;2023-07-16T06:23:13;3.83;;;0.82;;
47153;SDS011;32907;41.412;2.164;2023-07-16T06:25:43;1.75;;;0.70;;
47153;SDS011;32907;41.412;2.164;2023-07-16T06:28:12;2.65;;;0.60;;
47153;SDS011;32907;41.412;2.164;2023-07-16T06:30:39;1.88;;;0.80;;
47153;SDS011;32907;41.412;2.164;2023-07-16T06:33:07;1.42;;;0.52;;
47153;SDS011;32907;41.412;2.164;2023-07-16T06:35:35;2.22;;;0.60;;
47153;SDS011;32907;41.412;2.164;2023-07-16T06:38:03;1.20;;;0.65;;
47153;SDS011;32907;41.412;2.164;2023-07-16T06:40:32;1.73;;;0.70;;
47153;SDS011;32907;41.412;2.164;2023-07-16T06:42:59;1.77;;;0.70;;
47153;SDS011;32907;41.412;2.164;2023-07-16T06:45:27;4.47;;;0.82;;
47153;SDS011;32907;41.412;2.164;2023-07-16T06:47:55;2.05;;;0.90;;
47153;SDS011;32907;41.412;2.164;2023-07-16T06:50:23;3.75;;;0.90;;
47153;SDS011;32907;41.412;2.164;2023-07-16T06:52:50;3.10;;;0.90;;
47153;SDS011;32907;41.412;2.164;2023-07-16T06:55:18;5.15;;;1.30;;
47153;SDS011;32907;41.412;2.164;2023-07-16T06:57:46;5.75;;;3.83;;
47153;SDS011;32907;41.412;2.164;2023-07-16T07:00:14;3.83;;;1.92;;
47153;SDS011;32907;41.412;2.164;2023-07-16T07:02:42;3.10;;;1.10;;
47153;SDS011;32907;41.412;2.164;2023-07-16T07:05:10;3.70;;;0.90;;
47153;SDS011;32907;41.412;2.164;2023-07-16T07:07:37;1.92;;;0.88;;
47153;SDS011;32907;41.412;2.164;2023-07-16T07:10:06;11.77;;;2.38;;
47153;SDS011;32907;41.412;2.164;2023-07-16T07:12:34;3.90;;;1.17;;
47153;SDS011;32907;41.412;2.164;2023-07-16T07:15:07;5.05;;;1.13;;
47153;SDS011;32907;41.412;2.164;2023-07-16T07:17:36;5.80;;;1.30;;
47153;SDS011;32907;41.412;2.164;2023-07-16T07:20:05;2.55;;;0.80;;
47153;SDS011;32907;41.412;2.164;2023-07-16T07:22:34;3.55;;;0.60;;
47153;SDS011;32907;41.412;2.164;2023-07-16T07:25:02;3.30;;;0.85;;
47153;SDS011;32907;41.412;2.164;2023-07-16T07:27:30;5.68;;;1.23;;
47153;SDS011;32907;41.412;2.164;2023-07-16T07:29:58;3.25;;;1.00;;
47153;SDS011;32907;41.412;2.164;2023-07-16T07:32:26;3.72;;;0.80;;
47153;SDS011;32907;41.412;2.164;2023-07-16T07:34:54;1.23;;;0.65;;
47153;SDS011;32907;41.412;2.164;2023-07-16T07:37:22;1.85;;;0.68;;
47153;SDS011;32907;41.412;2.164;2023-07-16T07:39:53;2.50;;;0.95;;
47153;SDS011;32907;41.412;2.164;2023-07-16T07:42:23;1.63;;;0.60;;
47153;SDS011;32907;41.412;2.164;2023-07-16T07:44:54;2.70;;;0.70;;
47153;SDS011;32907;41.412;2.164;2023-07-16T07:47:22;2.70;;;0.73;;
47153;SDS011;32907;41.412;2.164;2023-07-16T07:49:51;2.90;;;0.70;;
47153;SDS011;32907;41.412;2.164;2023-07-16T07:52:20;2.80;;;1.70;;
47153;SDS011;32907;41.412;2.164;2023-07-16T07:54:48;4.53;;;0.95;;
47153;SDS011;32907;41.412;2.164;2023-07-16T07:57:16;2.78;;;0.90;;
47153;SDS011;32907;41.412;2.164;2023-07-16T07:59:45;2.00;;;0.70;;
47153;SDS011;32907;41.412;2.164;2023-07-16T08:02:12;2.70;;;0.70;;
47153;SDS011;32907;41.412;2.164;2023-07-16T08:04:42;1.77;;;0.60;;
47153;SDS011;32907;41.412;2.164;2023-07-16T08:07:13;1.45;;;0.70;;
47153;SDS011;32907;41.412;2.164;2023-07-16T08:09:41;2.28;;;0.60;;
47153;SDS011;32907;41.412;2.164;2023-07-16T08:12:09;2.80;;;0.80;;
47153;SDS011;32907;41.412;2.164;2023-07-16T08:14:41;3.20;;;0.70;;
47153;SDS011;32907;41.412;2.164;2023-07-16T08:17:09;3.33;;;0.68;;
47153;SDS011;32907;41.412;2.164;2023-07-16T08:19:38;1.08;;;0.60;;
47153;SDS011;32907;41.412;2.164;2023-07-16T08:22:06;1.65;;;0.77;;
47153;SDS011;32907;41.412;2.164;2023-07-16T08:24:34;3.95;;;1.15;;
47153;SDS011;32907;41.412;2.164;2023-07-16T08:27:02;0.73;;;0.50;;
47153;SDS011;32907;41.412;2.164;2023-07-16T08:29:30;2.85;;;0.70;;
47153;SDS011;32907;41.412;2.164;2023-07-16T08:32:00;2.35;;;0.60;;
47153;SDS011;32907;41.412;2.164;2023-07-16T08:34:28;2.50;;;0.60;;
47153;SDS011;32907;41.412;2.164;2023-07-16T08:36:57;5.40;;;1.50;;
47153;SDS011;32907;41.412;2.164;2023-07-16T08:39:25;14.43;;;5.60;;
47153;SDS011;32907;41.412;2.164;2023-07-16T08:41:53;11.60;;;4.15;;
47153;SDS011;32907;41.412;2.164;2023-07-16T08:44:22;6.28;;;2.50;;
47153;SDS011;32907;41.412;2.164;2023-07-16T08:46:51;3.30;;;1.13;;
47153;SDS011;32907;41.412;2.164;2023-07-16T08:49:19;2.35;;;1.13;;
47153;SDS011;32907;41.412;2.164;2023-07-16T08:51:49;2.88;;;1.10;;
47153;SDS011;32907;41.412;2.164;2023-07-16T08:54:17;3.35;;;1.27;;
47153;SDS011;32907;41.412;2.164;2023-07-16T08:56:47;2.42;;;1.20;;
47153;SDS011;32907;41.412;2.164;2023-07-16T08:59:16;2.15;;;1.10;;
47153;SDS011;32907;41.412;2.164;2023-07-16T09:01:48;3.78;;;1.10;;
47153;SDS011;32907;41.412;2.164;2023-07-16T09:04:16;1.77;;;0.80;;
47153;SDS011;32907;41.412;2.164;2023-07-16T09:06:45;3.45;;;0.80;;
47153;SDS011;32907;41.412;2.164;2023-07-16T09:09:22;2.72;;;0.80;;
47153;SDS011;32907;41.412;2.164;2023-07-16T09:11:50;1.63;;;0.88;;
47153;SDS011;32907;41.412;2.164;2023-07-16T09:14:18;2.08;;;1.00;;
47153;SDS011;32907;41.412;2.164;2023-07-16T09:16:47;2.70;;;1.10;;
47153;SDS011;32907;41.412;2.164;2023-07-16T09:19:16;2.03;;;1.00;;
47153;SDS011;32907;41.412;2.164;2023-07-16T09:21:49;2.72;;;0.82;;
47153;SDS011;32907;41.412;2.164;2023-07-16T09:24:19;2.42;;;1.15;;
47153;SDS011;32907;41.412;2.164;2023-07-16T09:26:48;12.05;;;5.55;;
47153;SDS011;32907;41.412;2.164;2023-07-16T09:29:17;12.50;;;7.95;;
47153;SDS011;32907;41.412;2.164;2023-07-16T09:34:35;21.65;;;9.55;;
47153;SDS011;32907;41.412;2.164;2023-07-16T09:37:03;22.73;;;9.77;;
47153;SDS011;32907;41.412;2.164;2023-07-16T09:39:35;32.40;;;11.68;;
47153;SDS011;32907;41.412;2.164;2023-07-16T09:42:06;29.85;;;10.35;;
47153;SDS011;32907;41.412;2.164;2023-07-16T09:44:35;25.55;;;8.77;;
47153;SDS011;32907;41.412;2.164;2023-07-16T09:47:03;12.55;;;4.88;;
47153;SDS011;32907;41.412;2.164;2023-07-16T09:49:31;6.40;;;2.70;;
47153;SDS011;32907;41.412;2.164;2023-07-16T09:51:59;3.28;;;1.75;;
47153;SDS011;32907;41.412;2.164;2023-07-16T09:54:31;5.85;;;1.73;;
47153;SDS011;32907;41.412;2.164;2023-07-16T09:57:03;5.38;;;2.13;;
47153;SDS011;32907;41.412;2.164;2023-07-16T09:59:34;5.22;;;1.92;;
47153;SDS011;32907;41.412;2.164;2023-07-16T10:02:03;3.85;;;1.73;;
47153;SDS011;32907;41.412;2.164;2023-07-16T10:04:39;4.00;;;2.35;;
47153;SDS011;32907;41.412;2.164;2023-07-16T10:07:17;3.20;;;2.03;;
47153;SDS011;32907;41.412;2.164;2023-07-16T10:09:55;4.30;;;2.08;;
47153;SDS011;32907;41.412;2.164;2023-07-16T10:12:25;3.92;;;1.40;;
47153;SDS011;32907;41.412;2.164;2023-07-16T10:14:54;5.55;;;1.70;;
47153;SDS011;32907;41.412;2.164;2023-07-16T10:17:26;4.55;;;1.52;;
47153;SDS011;32907;41.412;2.164;2023-07-16T10:19:55;3.67;;;1.25;;
47153;SDS011;32907;41.412;2.164;2023-07-16T10:25:01;3.53;;;1.27;;
47153;SDS011;32907;41.412;2.164;2023-07-16T10:27:35;4.50;;;1.13;;
47153;SDS011;32907;41.412;2.164;2023-07-16T10:30:05;1.77;;;0.93;;
47153;SDS011;32907;41.412;2.164;2023-07-16T10:32:33;3.20;;;1.00;;
47153;SDS011;32907;41.412;2.164;2023-07-16T10:35:02;1.20;;;0.63;;
47153;SDS011;32907;41.412;2.164;2023-07-16T10:37:33;2.38;;;1.00;;
47153;SDS011;32907;41.412;2.164;2023-07-16T10:40:01;4.45;;;1.20;;
47153;SDS011;32907;41.412;2.164;2023-07-16T10:42:33;3.08;;;1.08;;
47153;SDS011;32907;41.412;2.164;2023-07-16T10:45:03;2.17;;;1.00;;
47153;SDS011;32907;41.412;2.164;2023-07-16T10:47:36;2.42;;;0.90;;
47153;SDS011;32907;41.412;2.164;2023-07-16T10:50:08;3.90;;;1.00;;
47153;SDS011;32907;41.412;2.164;2023-07-16T10:52:37;2.45;;;0.60;;
47153;SDS011;32907;41.412;2.164;2023-07-16T10:55:06;1.88;;;0.90;;
47153;SDS011;32907;41.412;2.164;2023-07-16T10:57:34;2.22;;;0.80;;
47153;SDS011;32907;41.412;2.164;2023-07-16T11:00:09;4.07;;;0.82;;
47153;SDS011;32907;41.412;2.164;2023-07-16T11:02:41;4.28;;;0.80;;
47153;SDS011;32907;41.412;2.164;2023-07-16T11:05:16;2.15;;;0.68;;
47153;SDS011;32907;41.412;2.164;2023-07-16T11:07:51;2.10;;;0.63;;
47153;SDS011;32907;41.412;2.164;2023-07-16T11:10:22;1.48;;;0.70;;
47153;SDS011;32907;41.412;2.164;2023-07-16T11:12:51;2.45;;;0.90;;
47153;SDS011;32907;41.412;2.164;2023-07-16T11:15:30;0.85;;;0.50;;
47153;SDS011;32907;41.412;2.164;2023-07-16T11:18:00;1.95;;;0.70;;
47153;SDS011;32907;41.412;2.164;2023-07-16T11:20:29;4.03;;;1.15;;
47153;SDS011;32907;41.412;2.164;2023-07-16T11:22:59;4.28;;;1.58;;
47153;SDS011;32907;41.412;2.164;2023-07-16T11:25:28;5.28;;;0.82;;
47153;SDS011;32907;41.412;2.164;2023-07-16T11:27:57;2.53;;;0.85;;
47153;SDS011;32907;41.412;2.164;2023-07-16T11:30:25;3.83;;;2.25;;
47153;SDS011;32907;41.412;2.164;2023-07-16T11:32:57;4.60;;;2.67;;
47153;SDS011;32907;41.412;2.164;2023-07-16T11:35:26;4.03;;;2.22;;
47153;SDS011;32907;41.412;2.164;2023-07-16T11:37:54;3.05;;;1.60;;
47153;SDS011;32907;41.412;2.164;2023-07-16T11:40:22;2.67;;;1.08;;
47153;SDS011;32907;41.412;2.164;2023-07-16T11:42:51;4.57;;;1.73;;
47153;SDS011;32907;41.412;2.164;2023-07-16T11:45:21;4.03;;;1.20;;
47153;SDS011;32907;41.412;2.164;2023-07-16T11:47:52;3.92;;;1.23;;
47153;SDS011;32907;41.412;2.164;2023-07-16T11:50:22;4.15;;;1.50;;
47153;SDS011;32907;41.412;2.164;2023-07-16T11:52:55;3.47;;;1.73;;
47153;SDS011;32907;41.412;2.164;2023-07-16T11:55:29;5.28;;;2.30;;
47153;SDS011;32907;41.412;2.164;2023-07-16T11:57:58;4.78;;;1.75;;
47153;SDS011;32907;41.412;2.164;2023-07-16T12:00:27;5.25;;;1.60;;
47153;SDS011;32907;41.412;2.164;2023-07-16T12:02:54;2.65;;;1.42;;
47153;SDS011;32907;41.412;2.164;2023-07-16T12:05:22;4.47;;;1.50;;
47153;SDS011;32907;41.412;2.164;2023-07-16T12:08:14;4.95;;;2.10;;
47153;SDS011;32907;41.412;2.164;2023-07-16T12:10:42;3.38;;;1.33;;
47153;SDS011;32907;41.412;2.164;2023-07-16T12:13:11;5.57;;;1.20;;
47153;SDS011;32907;41.412;2.164;2023-07-16T12:15:39;4.93;;;1.55;;
47153;SDS011;32907;41.412;2.164;2023-07-16T12:18:07;5.60;;;1.67;;
47153;SDS011;32907;41.412;2.164;2023-07-16T12:20:35;3.10;;;1.17;;
47153;SDS011;32907;41.412;2.164;2023-07-16T12:23:10;4.85;;;1.50;;
47153;SDS011;32907;41.412;2.164;2023-07-16T12:25:38;6.07;;;2.35;;
47153;SDS011;32907;41.412;2.164;2023-07-16T12:28:06;9.95;;;2.60;;
47153;SDS011;32907;41.412;2.164;2023-07-16T12:30:34;5.45;;;2.28;;
47153;SDS011;32907;41.412;2.164;2023-07-16T12:33:02;5.50;;;2.80;;
47153;SDS011;32907;41.412;2.164;2023-07-16T12:35:31;5.85;;;2.70;;
47153;SDS011;32907;41.412;2.164;2023-07-16T12:38:00;6.32;;;2.88;;
47153;SDS011;32907;41.412;2.164;2023-07-16T12:40:28;5.47;;;2.17;;
47153;SDS011;32907;41.412;2.164;2023-07-16T12:42:58;5.20;;;2.20;;
47153;SDS011;32907;41.412;2.164;2023-07-16T12:45:26;11.02;;;3.22;;
47153;SDS011;32907;41.412;2.164;2023-07-16T12:47:54;29.65;;;13.52;;
47153;SDS011;32907;41.412;2.164;2023-07-16T12:50:22;29.77;;;13.15;;
47153;SDS011;32907;41.412;2.164;2023-07-16T12:52:50;21.70;;;10.50;;
47153;SDS011;32907;41.412;2.164;2023-07-16T12:55:18;21.25;;;10.20;;
47153;SDS011;32907;41.412;2.164;2023-07-16T12:57:46;12.98;;;6.50;;
47153;SDS011;32907;41.412;2.164;2023-07-16T13:00:14;12.55;;;4.63;;
47153;SDS011;32907;41.412;2.164;2023-07-16T13:02:42;7.45;;;3.47;;
47153;SDS011;32907;41.412;2.164;2023-07-16T13:05:10;9.55;;;3.80;;
47153;SDS011;32907;41.412;2.164;2023-07-16T13:07:39;5.85;;;2.67;;
47153;SDS011;32907;41.412;2.164;2023-07-16T13:10:07;4.82;;;2.10;;
47153;SDS011;32907;41.412;2.164;2023-07-16T13:12:49;4.97;;;2.05;;
47153;SDS011;32907;41.412;2.164;2023-07-16T13:15:18;9.48;;;3.53;;
47153;SDS011;32907;41.412;2.164;2023-07-16T13:17:47;7.70;;;2.75;;
47153;SDS011;32907;41.412;2.164;2023-07-16T13:20:15;5.60;;;2.65;;
47153;SDS011;32907;41.412;2.164;2023-07-16T13:22:45;6.35;;;2.88;;
47153;SDS011;32907;41.412;2.164;2023-07-16T13:25:13;3.58;;;1.90;;
47153;SDS011;32907;41.412;2.164;2023-07-16T13:27:40;6.05;;;2.10;;
47153;SDS011;32907;41.412;2.164;2023-07-16T13:30:08;4.00;;;2.05;;
47153;SDS011;32907;41.412;2.164;2023-07-16T13:32:37;3.67;;;1.80;;
47153;SDS011;32907;41.412;2.164;2023-07-16T13:35:05;5.18;;;1.65;;
47153;SDS011;32907;41.412;2.164;2023-07-16T13:37:33;5.53;;;1.75;;
47153;SDS011;32907;41.412;2.164;2023-07-16T13:40:02;5.18;;;2.00;;
47153;SDS011;32907;41.412;2.164;2023-07-16T13:42:30;4.63;;;2.35;;
47153;SDS011;32907;41.412;2.164;2023-07-16T13:44:58;5.47;;;2.10;;
47153;SDS011;32907;41.412;2.164;2023-07-16T13:47:26;5.45;;;2.25;;
47153;SDS011;32907;41.412;2.164;2023-07-16T13:49:56;6.20;;;2.30;;
47153;SDS011;32907;41.412;2.164;2023-07-16T13:52:24;4.35;;;2.20;;
47153;SDS011;32907;41.412;2.164;2023-07-16T13:54:53;6.35;;;2.75;;
47153;SDS011;32907;41.412;2.164;2023-07-16T13:57:24;5.18;;;2.33;;
47153;SDS011;32907;41.412;2.164;2023-07-16T13:59:52;7.75;;;2.80;;
47153;SDS011;32907;41.412;2.164;2023-07-16T14:02:21;4.35;;;2.20;;
47153;SDS011;32907;41.412;2.164;2023-07-16T14:04:49;6.43;;;2.10;;
47153;SDS011;32907;41.412;2.164;2023-07-16T14:07:17;4.82;;;2.13;;
47153;SDS011;32907;41.412;2.164;2023-07-16T14:09:45;4.93;;;2.30;;
47153;SDS011;32907;41.412;2.164;2023-07-16T14:12:13;4.55;;;2.40;;
47153;SDS011;32907;41.412;2.164;2023-07-16T14:14:41;4.45;;;1.80;;
47153;SDS011;32907;41.412;2.164;2023-07-16T14:17:09;4.20;;;1.67;;
47153;SDS011;32907;41.412;2.164;2023-07-16T14:19:38;5.13;;;2.40;;
47153;SDS011;32907;41.412;2.164;2023-07-16T14:22:05;5.43;;;2.13;;
47153;SDS011;32907;41.412;2.164;2023-07-16T14:24:33;4.13;;;1.95;;
47153;SDS011;32907;41.412;2.164;2023-07-16T14:27:01;6.88;;;2.08;;
47153;SDS011;32907;41.412;2.164;2023-07-16T14:29:29;4.18;;;1.85;;
47153;SDS011;32907;41.412;2.164;2023-07-16T14:31:57;5.10;;;1.70;;
47153;SDS011;32907;41.412;2.164;2023-07-16T14:34:25;4.03;;;1.90;;
47153;SDS011;32907;41.412;2.164;2023-07-16T14:36:54;5.82;;;1.90;;
47153;SDS011;32907;41.412;2.164;2023-07-16T14:39:22;5.38;;;2.00;;
47153;SDS011;32907;41.412;2.164;2023-07-16T14:41:50;4.78;;;1.70;;
47153;SDS011;32907;41.412;2.164;2023-07-16T14:44:17;4.22;;;1.58;;
47153;SDS011;32907;41.412;2.164;2023-07-16T14:46:45;5.90;;;1.90;;
47153;SDS011;32907;41.412;2.164;2023-07-16T14:49:13;4.35;;;1.95;;
47153;SDS011;32907;41.412;2.164;2023-07-16T14:51:41;4.50;;;1.70;;
47153;SDS011;32907;41.412;2.164;2023-07-16T14:54:09;3.83;;;1.77;;
47153;SDS011;32907;41.412;2.164;2023-07-16T14:56:37;4.45;;;1.80;;
47153;SDS011;32907;41.412;2.164;2023-07-16T14:59:05;5.43;;;2.03;;
47153;SDS011;32907;41.412;2.164;2023-07-16T15:01:33;5.43;;;1.88;;
47153;SDS011;32907;41.412;2.164;2023-07-16T15:04:01;6.93;;;1.77;;
47153;SDS011;32907;41.412;2.164;2023-07-16T15:06:30;4.15;;;1.75;;
47153;SDS011;32907;41.412;2.164;2023-07-16T15:08:58;6.57;;;3.28;;